createdAt,value
2023-02-27T00:04:50.571Z,-0.97
2023-02-27T00:09:57.865Z,-1.04
2023-02-27T00:15:10.137Z,-1.11
2023-02-27T00:20:15.818Z,-1.18
2023-02-27T00:25:18.771Z,-1.25
2023-02-27T00:30:20.985Z,-1.29
2023-02-27T00:35:24.522Z,-1.28
2023-02-27T00:40:26.683Z,-1.22
2023-02-27T00:45:28.625Z,-1.14
2023-02-27T00:50:31.222Z,-1.05
2023-02-27T00:55:33.692Z,-0.97
2023-02-27T01:00:35.908Z,-0.89
2023-02-27T01:05:38.054Z,-0.83
2023-02-27T01:10:39.975Z,-0.78
2023-02-27T01:15:42.023Z,-0.73
2023-02-27T01:20:44.337Z,-0.69
2023-02-27T01:25:49.096Z,-0.66
2023-02-27T01:30:51.201Z,-0.63
2023-02-27T01:35:53.369Z,-0.60
2023-02-27T01:40:57.432Z,-0.56
2023-02-27T01:46:00.981Z,-0.54
2023-02-27T01:51:08.889Z,-0.52
2023-02-27T01:56:16.644Z,-0.50
2023-02-27T02:01:20.399Z,-0.47
2023-02-27T02:06:23.629Z,-0.45
2023-02-27T02:11:27.693Z,-0.44
2023-02-27T02:16:44.123Z,-0.42
2023-02-27T02:22:09.184Z,-0.42
2023-02-27T02:27:40.269Z,-0.42
2023-02-27T02:33:01.213Z,-0.43
2023-02-27T02:38:47.660Z,-0.43
2023-02-27T02:44:25.612Z,-0.40
2023-02-27T02:50:00.797Z,-0.37
2023-02-27T02:55:32.932Z,-0.34
2023-02-27T03:00:40.571Z,-0.32
2023-02-27T03:05:51.803Z,-0.36
2023-02-27T03:11:01.004Z,-0.39
2023-02-27T03:16:53.868Z,-0.42
2023-02-27T03:22:02.806Z,-0.43
2023-02-27T03:27:08.558Z,-0.45
2023-02-27T03:32:22.947Z,-0.45
2023-02-27T03:37:45.893Z,-0.46
2023-02-27T03:42:57.281Z,-0.47
2023-02-27T03:48:22.544Z,-0.47
2023-02-27T03:53:49.786Z,-0.48
2023-02-27T03:58:53.584Z,-0.49
2023-02-27T04:04:04.928Z,-0.52
2023-02-27T04:09:48.680Z,-0.54
2023-02-27T04:14:59.772Z,-0.57
2023-02-27T04:20:35.671Z,-0.59
2023-02-27T04:26:15.267Z,-0.60
2023-02-27T04:31:19.316Z,-0.62
2023-02-27T04:36:35.053Z,-0.62
2023-02-27T04:41:52.728Z,-0.64
2023-02-27T04:46:57.179Z,-0.66
2023-02-27T04:52:13.085Z,-0.66
2023-02-27T04:57:22.659Z,-0.67
2023-02-27T05:02:52.005Z,-0.67
2023-02-27T05:08:02.403Z,-0.67
2023-02-27T05:13:30.414Z,-0.67
2023-02-27T05:18:32.717Z,-0.65
2023-02-27T05:23:49.088Z,-0.64
2023-02-27T05:29:27.692Z,-0.63
2023-02-27T05:34:58.483Z,-0.61
2023-02-27T05:40:08.490Z,-0.59
2023-02-27T05:45:20.303Z,-0.58
2023-02-27T05:50:30.826Z,-0.59
2023-02-27T05:55:47.279Z,-0.59
2023-02-27T06:01:02.298Z,-0.58
2023-02-27T06:06:13.674Z,-0.56
2023-02-27T06:11:17.877Z,-0.53
2023-02-27T06:16:20.336Z,-0.50
2023-02-27T06:21:22.584Z,-0.49
2023-02-27T06:26:24.799Z,-0.48
2023-02-27T06:31:26.994Z,-0.47
2023-02-27T06:36:30.330Z,-0.44
2023-02-27T06:41:32.351Z,-0.44
2023-02-27T06:46:34.377Z,-0.42
2023-02-27T06:51:36.964Z,-0.37
2023-02-27T06:56:39.477Z,-0.32
2023-02-27T07:01:41.833Z,-0.24
2023-02-27T07:07:32.681Z,-0.15
2023-02-27T07:12:08.075Z,-0.02
2023-02-27T07:17:11.071Z,0.16
2023-02-27T07:22:15.705Z,0.35
2023-02-27T07:27:18.721Z,0.50
2023-02-27T07:32:27.511Z,0.63
2023-02-27T07:37:30.256Z,0.74
2023-02-27T07:42:33.165Z,0.81
2023-02-27T07:47:41.596Z,0.86
2023-02-27T07:52:49.714Z,0.92
2023-02-27T07:57:56.022Z,0.97
2023-02-27T08:02:58.736Z,1.09
2023-02-27T08:08:04.227Z,1.17
2023-02-27T08:13:06.504Z,1.30
2023-02-27T08:18:08.866Z,1.47
2023-02-27T08:23:12.092Z,1.59
2023-02-27T08:28:15.014Z,1.67
2023-02-27T08:33:21.021Z,1.72
2023-02-27T08:38:28.621Z,1.80
2023-02-27T08:43:31.608Z,1.81
2023-02-27T08:48:34.292Z,1.79
2023-02-27T08:53:36.618Z,1.70
2023-02-27T08:58:39.475Z,1.63
2023-02-27T09:03:49.475Z,1.61
2023-02-27T09:09:06.684Z,1.66
2023-02-27T09:14:20.052Z,1.70
2023-02-27T09:19:27.958Z,1.74
2023-02-27T09:24:33.515Z,1.82
2023-02-27T09:29:38.303Z,1.99
2023-02-27T09:34:40.507Z,2.39
2023-02-27T09:39:45.338Z,2.82
2023-02-27T09:45:04.080Z,3.25
2023-02-27T09:50:45.049Z,3.50
2023-02-27T09:55:51.547Z,3.75
2023-02-27T10:01:10.194Z,3.92
2023-02-27T10:06:44.069Z,4.10
2023-02-27T10:11:56.797Z,4.17
2023-02-27T10:17:03.862Z,4.01
2023-02-27T10:22:12.413Z,3.79
2023-02-27T10:27:22.805Z,3.52
2023-02-27T10:32:30.931Z,3.25
2023-02-27T10:37:37.301Z,3.14
2023-02-27T10:42:42.152Z,3.12
2023-02-27T10:47:45.498Z,3.19
2023-02-27T10:52:53.816Z,3.39
2023-02-27T10:57:58.403Z,3.26
2023-02-27T11:03:01.965Z,3.01
2023-02-27T11:08:21.467Z,2.72
2023-02-27T11:13:26.076Z,2.48
2023-02-27T11:18:30.550Z,2.35
2023-02-27T11:23:34.053Z,2.36
2023-02-27T11:28:36.552Z,2.51
2023-02-27T11:33:40.364Z,2.64
2023-02-27T11:38:50.354Z,2.78
2023-02-27T11:43:53.407Z,2.87
2023-02-27T11:49:07.218Z,2.79
2023-02-27T11:54:32.553Z,2.79
2023-02-27T11:59:41.824Z,2.91
2023-02-27T12:04:52.407Z,3.03
2023-02-27T12:10:11.792Z,3.02
2023-02-27T12:15:24.539Z,2.92
2023-02-27T12:20:58.684Z,2.84
2023-02-27T12:26:25.351Z,2.95
2023-02-27T12:31:32.646Z,3.23
2023-02-27T12:36:35.314Z,3.63
2023-02-27T12:41:52.496Z,4.07
2023-02-27T12:46:57.540Z,4.20
2023-02-27T12:52:10.275Z,3.95
2023-02-27T12:57:28.463Z,3.56
2023-02-27T13:02:44.982Z,3.25
2023-02-27T13:08:16.458Z,3.14
2023-02-27T13:13:26.332Z,3.31
2023-02-27T13:18:37.525Z,3.61
2023-02-27T13:24:03.071Z,3.74
2023-02-27T13:29:06.485Z,3.80
2023-02-27T13:34:17.742Z,3.80
2023-02-27T13:39:53.556Z,3.88
2023-02-27T13:45:03.185Z,3.85
2023-02-27T13:50:24.977Z,3.85
2023-02-27T13:55:31.133Z,3.73
2023-02-27T14:00:37.968Z,3.32
2023-02-27T14:05:44.799Z,2.86
2023-02-27T14:11:16.740Z,2.44
2023-02-27T14:16:54.645Z,2.20
2023-02-27T14:22:10.885Z,2.10
2023-02-27T14:27:25.178Z,2.13
2023-02-27T14:32:33.533Z,2.16
2023-02-27T14:37:38.253Z,2.19
2023-02-27T14:42:59.439Z,2.23
2023-02-27T14:48:02.008Z,2.28
2023-02-27T14:53:06.447Z,2.32
2023-02-27T14:58:23.703Z,2.36
2023-02-27T15:03:57.517Z,2.35
2023-02-27T15:09:00.054Z,2.23
2023-02-27T15:14:06.399Z,2.12
2023-02-27T15:19:13.421Z,2.04
2023-02-27T15:24:23.665Z,1.97
2023-02-27T15:29:37.435Z,1.91
2023-02-27T15:34:44.006Z,1.86
2023-02-27T15:39:47.106Z,1.73
2023-02-27T15:44:50.690Z,1.63
2023-02-27T15:50:01.662Z,1.56
2023-02-27T15:55:10.643Z,1.52
2023-02-27T16:00:16.807Z,1.40
2023-02-27T16:05:26.520Z,1.24
2023-02-27T16:10:35.512Z,1.13
2023-02-27T16:15:39.938Z,1.01
2023-02-27T16:20:54.851Z,0.87
2023-02-27T16:26:27.331Z,0.73
2023-02-27T16:31:46.746Z,0.62
2023-02-27T16:36:58.115Z,0.52
2023-02-27T16:42:01.816Z,0.42
2023-02-27T16:47:04.061Z,0.40
2023-02-27T16:52:11.502Z,0.36
2023-02-27T16:57:15.063Z,0.28
2023-02-27T17:02:17.233Z,0.21
2023-02-27T17:07:19.945Z,0.14
2023-02-27T17:12:22.276Z,0.03
2023-02-27T17:17:24.252Z,-0.05
2023-02-27T17:22:26.668Z,-0.05
2023-02-27T17:27:28.651Z,-0.02
2023-02-27T17:32:31.567Z,0.05
2023-02-27T17:37:34.404Z,0.12
2023-02-27T17:42:37.155Z,0.16
2023-02-27T17:47:39.204Z,0.19
2023-02-27T17:52:41.058Z,0.21
2023-02-27T17:57:43.939Z,0.22
2023-02-27T18:02:47.922Z,0.20
2023-02-27T18:07:50.173Z,0.16
2023-02-27T18:12:52.630Z,0.07
2023-02-27T18:17:54.813Z,-0.05
2023-02-27T18:22:57.487Z,-0.13
2023-02-27T18:28:01.815Z,-0.20
2023-02-27T18:33:04.146Z,-0.26
2023-02-27T18:38:06.748Z,-0.29
2023-02-27T18:43:10.614Z,-0.30
2023-02-27T18:48:15.934Z,-0.31
2023-02-27T18:53:18.920Z,-0.31
2023-02-27T18:58:21.439Z,-0.27
2023-02-27T19:03:25.418Z,-0.20
2023-02-27T19:08:29.355Z,-0.15
2023-02-27T19:13:31.216Z,-0.11
2023-02-27T19:18:33.490Z,-0.08
2023-02-27T19:23:36.539Z,-0.03
2023-02-27T19:28:38.500Z,-0.02
2023-02-27T19:33:41.038Z,-0.02
2023-02-27T19:38:43.765Z,0.01
2023-02-27T19:43:46.959Z,0.01
2023-02-27T19:48:50.197Z,0.04
2023-02-27T19:53:53.824Z,0.05
2023-02-27T19:58:56.215Z,0.03
2023-02-27T20:04:00.337Z,-0.00
2023-02-27T20:09:02.744Z,-0.03
2023-02-27T20:14:05.191Z,-0.07
2023-02-27T20:19:10.976Z,-0.12
2023-02-27T20:24:14.625Z,-0.21
2023-02-27T20:29:22.987Z,-0.31
2023-02-27T20:34:26.439Z,-0.41
2023-02-27T20:39:29.128Z,-0.46
2023-02-27T20:44:30.930Z,-0.50
2023-02-27T20:49:32.802Z,-0.51
2023-02-27T20:54:34.645Z,-0.49
2023-02-27T20:59:36.754Z,-0.45
2023-02-27T21:04:47.789Z,-0.41
2023-02-27T21:09:50.899Z,-0.39
2023-02-27T21:14:52.757Z,-0.38
2023-02-27T21:19:54.760Z,-0.37
2023-02-27T21:24:57.806Z,-0.37
2023-02-27T21:29:59.970Z,-0.40
2023-02-27T21:35:01.832Z,-0.41
2023-02-27T21:40:04.967Z,-0.43
2023-02-27T21:45:07.801Z,-0.43
2023-02-27T21:50:14.660Z,-0.41
2023-02-27T21:55:17.620Z,-0.39
2023-02-27T22:00:20.532Z,-0.37
2023-02-27T22:05:22.692Z,-0.32
2023-02-27T22:10:25.712Z,-0.26
2023-02-27T22:15:32.118Z,-0.21
2023-02-27T22:20:35.646Z,-0.16
2023-02-27T22:25:39.804Z,-0.12
2023-02-27T22:30:42.198Z,-0.10
2023-02-27T22:35:44.571Z,-0.06
2023-02-27T22:40:46.739Z,-0.06
2023-02-27T22:45:52.441Z,-0.02
2023-02-27T22:51:11.332Z,0.02
2023-02-27T22:56:16.548Z,0.03
2023-02-27T23:01:28.874Z,0.01
2023-02-27T23:06:35.431Z,0.02
2023-02-27T23:11:37.917Z,0.06
2023-02-27T23:16:45.620Z,0.06
2023-02-27T23:21:48.462Z,0.05
2023-02-27T23:26:52.263Z,0.06
2023-02-27T23:31:54.435Z,0.06
2023-02-27T23:36:56.839Z,0.06
2023-02-27T23:41:58.821Z,0.08
2023-02-27T23:47:03.945Z,0.09
2023-02-27T23:52:05.976Z,0.09
2023-02-27T23:57:08.960Z,0.11
